Time;durP1;ratioP1;P1;durP2;ratioP2;P2;SDS_P1;SDS_P2;PMS_P1;PMS_P2;Temp;Humidity;BMP_temperature;BMP_pressure;BME280_temperature;BME280_humidity;BME280_pressure;Samples;Min_cycle;Max_cycle;Signal;HPM_P1;HPM_P2
2022/04/13 00:00:36;;;;;;;7.30;3.17;;;;;;;14.81;53.82;100929.13;5012056;28;20037;-83
2022/04/13 00:03:01;;;;;;;9.27;3.45;;;;;;;14.69;54.35;100925.44;5015466;28;20623;-83
2022/04/13 00:05:27;;;;;;;7.03;3.05;;;;;;;14.67;54.50;100933.56;5022961;28;20163;-83
2022/04/13 00:07:54;;;;;;;6.10;2.90;;;;;;;14.64;54.70;100919.53;5011057;28;20029;-83
2022/04/13 00:10:19;;;;;;;11.63;3.42;;;;;;;14.59;54.91;100929.66;5021176;28;20060;-83
2022/04/13 00:12:44;;;;;;;7.05;3.25;;;;;;;14.54;54.79;100927.28;5015489;28;20026;-83
2022/04/13 00:15:10;;;;;;;8.55;3.65;;;;;;;14.49;55.13;100910.66;5018641;28;20557;-83
2022/04/13 00:17:36;;;;;;;8.98;3.10;;;;;;;14.55;55.19;100928.19;5020682;28;20067;-84
2022/04/13 00:20:03;;;;;;;8.48;3.17;;;;;;;14.54;55.40;100938.00;5015112;28;20037;-84
2022/04/13 00:22:29;;;;;;;16.08;6.47;;;;;;;14.50;55.52;100930.28;5023758;28;20108;-84
2022/04/13 00:24:54;;;;;;;12.60;4.78;;;;;;;14.50;55.58;100933.81;5024443;28;20112;-84
2022/04/13 00:27:19;;;;;;;10.32;3.60;;;;;;;14.49;55.44;100940.13;5027353;28;20080;-84
2022/04/13 00:29:45;;;;;;;8.68;3.38;;;;;;;14.45;55.90;100939.44;5017895;28;20079;-84
2022/04/13 00:32:10;;;;;;;7.88;3.40;;;;;;;14.44;56.05;100952.94;5023687;28;20013;-84
2022/04/13 00:34:35;;;;;;;8.65;3.40;;;;;;;14.41;55.99;100953.97;5028630;28;20033;-84
2022/04/13 00:37:01;;;;;;;6.68;3.53;;;;;;;14.36;56.29;100961.47;5022726;28;20033;-84
2022/04/13 00:39:26;;;;;;;10.07;3.60;;;;;;;14.30;56.46;100956.53;5030912;28;20041;-84
2022/04/13 00:42:06;;;;;;;10.27;3.70;;;;;;;14.25;56.00;100952.41;5022817;28;20481;-84
2022/04/13 00:44:32;;;;;;;9.07;3.80;;;;;;;14.24;56.74;100950.69;5021221;28;20117;-83
2022/04/13 00:47:01;;;;;;;10.18;3.90;;;;;;;14.24;56.75;100969.44;5019747;28;20021;-84
2022/04/13 00:49:27;;;;;;;6.15;3.17;;;;;;;14.20;57.17;100968.75;5022386;28;20414;-85
2022/04/13 00:51:52;;;;;;;8.85;3.78;;;;;;;14.13;57.09;100967.47;5016056;28;20021;-84
2022/04/13 00:54:19;;;;;;;10.98;4.22;;;;;;;14.09;57.45;100972.13;5024216;28;20234;-84
2022/04/13 00:56:48;;;;;;;9.57;4.15;;;;;;;14.06;57.49;100979.50;5021778;28;20037;-84
2022/04/13 00:59:14;;;;;;;8.88;4.10;;;;;;;13.98;58.01;100979.97;5018149;28;20396;-84
2022/04/13 01:01:47;;;;;;;7.70;3.50;;;;;;;13.89;57.92;100972.53;5023951;28;20082;-84
2022/04/13 01:04:12;;;;;;;10.43;3.70;;;;;;;13.90;58.36;100982.28;5017398;28;20036;-84
2022/04/13 01:06:39;;;;;;;6.55;4.00;;;;;;;13.87;58.76;100980.63;5026511;28;20044;-84
2022/04/13 01:09:05;;;;;;;11.15;3.55;;;;;;;13.86;58.75;100991.44;5017144;28;20034;-84
2022/04/13 01:11:31;;;;;;;9.80;4.07;;;;;;;13.82;58.75;100985.41;5023900;28;20566;-84
2022/04/13 01:13:57;;;;;;;11.40;4.28;;;;;;;13.81;59.12;100994.41;5018936;28;20439;-83
2022/04/13 01:16:24;;;;;;;9.95;4.45;;;;;;;13.76;59.36;100991.16;5024980;28;20022;-84
2022/04/13 01:18:50;;;;;;;10.07;4.50;;;;;;;13.80;59.52;100997.19;5021824;28;20048;-84
2022/04/13 01:21:19;;;;;;;10.98;4.40;;;;;;;13.78;59.53;101001.75;5030136;28;20090;-83
2022/04/13 01:23:44;;;;;;;7.45;4.10;;;;;;;13.76;59.85;101001.00;5018859;28;20025;-84
2022/04/13 01:26:10;;;;;;;6.80;4.22;;;;;;;13.72;60.09;101000.34;5027501;28;20490;-84
2022/04/13 01:28:37;;;;;;;9.95;4.25;;;;;;;13.74;60.10;101003.75;5025756;28;20094;-83
2022/04/13 01:31:03;;;;;;;9.80;4.50;;;;;;;13.73;60.24;101012.75;5019095;28;20053;-84
2022/04/13 01:33:29;;;;;;;14.60;5.38;;;;;;;13.74;60.69;101017.13;5020091;28;20053;-84
2022/04/13 01:36:00;;;;;;;11.05;5.13;;;;;;;13.72;60.96;101020.88;5025898;28;20510;-84
2022/04/13 01:38:25;;;;;;;10.30;4.95;;;;;;;13.73;61.20;101023.44;5027645;28;20033;-84
2022/04/13 01:40:51;;;;;;;10.05;5.28;;;;;;;13.71;61.46;101028.03;5025909;28;20562;-83
2022/04/13 01:43:16;;;;;;;14.10;5.45;;;;;;;13.70;61.59;101029.84;5022430;28;20521;-83
2022/04/13 01:45:42;;;;;;;12.23;5.65;;;;;;;13.68;61.97;101038.91;5015864;28;20025;-83
2022/04/13 01:48:10;;;;;;;10.77;5.10;;;;;;;13.65;62.54;101034.59;5014454;28;20041;-83
2022/04/13 01:50:35;;;;;;;10.85;5.35;;;;;;;13.64;62.54;101037.38;5022632;28;20034;-82
2022/04/13 01:53:01;;;;;;;10.57;5.38;;;;;;;13.65;62.90;101042.63;5022142;28;20057;-83
2022/04/13 01:55:26;;;;;;;12.82;5.70;;;;;;;13.63;63.24;101041.03;5028541;28;20053;-83
2022/04/13 01:57:51;;;;;;;9.13;4.90;;;;;;;13.59;63.18;101037.66;5025254;28;20033;-83
2022/04/13 02:00:16;;;;;;;12.60;5.43;;;;;;;13.60;63.61;101054.56;5019566;28;20024;-84
2022/04/13 02:02:42;;;;;;;10.55;6.10;;;;;;;13.60;63.94;101057.25;5024362;28;20441;-84
2022/04/13 02:05:08;;;;;;;13.52;5.78;;;;;;;13.58;63.96;101057.31;5021459;28;20033;-84
2022/04/13 02:07:34;;;;;;;13.50;5.38;;;;;;;13.57;64.24;101047.56;5027180;28;20418;-84
2022/04/13 02:09:59;;;;;;;7.10;4.97;;;;;;;13.52;64.39;101048.81;5025925;28;20026;-84
2022/04/13 02:12:24;;;;;;;13.82;5.25;;;;;;;13.51;64.54;101047.09;5023618;28;20030;-84
2022/04/13 02:14:50;;;;;;;12.02;5.18;;;;;;;13.50;64.59;101050.72;5025445;28;20029;-83
2022/04/13 02:17:16;;;;;;;10.70;5.15;;;;;;;13.49;64.86;101060.53;5019061;28;20482;-84
2022/04/13 02:19:43;;;;;;;10.23;5.50;;;;;;;13.47;65.24;101066.97;5012370;28;20037;-84
2022/04/13 02:22:09;;;;;;;11.07;5.82;;;;;;;13.42;65.56;101070.75;5015227;28;20076;-84
2022/04/13 02:24:35;;;;;;;11.98;5.85;;;;;;;13.38;65.99;101071.03;5020847;28;20037;-84
2022/04/13 02:27:02;;;;;;;15.18;6.45;;;;;;;13.36;66.08;101068.44;5018183;28;20030;-84
2022/04/13 02:29:27;;;;;;;11.38;5.57;;;;;;;13.33;66.32;101065.94;5026049;28;20079;-84
2022/04/13 02:31:52;;;;;;;15.55;6.32;;;;;;;13.35;66.35;101071.22;5022446;28;20025;-84
2022/04/13 02:34:18;;;;;;;13.27;5.75;;;;;;;13.28;66.58;101064.50;5021614;28;20376;-84
2022/04/13 02:36:43;;;;;;;13.48;5.68;;;;;;;13.26;66.91;101066.41;5019280;28;20034;-84
2022/04/13 02:39:09;;;;;;;10.48;5.75;;;;;;;13.19;66.90;101061.38;5022459;28;20044;-84
2022/04/13 02:41:34;;;;;;;9.27;5.70;;;;;;;13.20;66.93;101067.56;5028519;28;20425;-84
2022/04/13 02:43:59;;;;;;;11.55;5.97;;;;;;;13.15;67.53;101070.50;5013941;28;20053;-84
2022/04/13 02:46:25;;;;;;;11.05;6.93;;;;;;;13.15;67.51;101070.50;5020108;28;20403;-84
2022/04/13 02:48:50;;;;;;;11.70;5.90;;;;;;;13.11;67.64;101073.47;5015135;28;20038;-84
2022/04/13 02:51:15;;;;;;;12.95;6.25;;;;;;;13.11;68.28;101079.66;5013878;28;20476;-84
2022/04/13 02:53:40;;;;;;;7.97;6.00;;;;;;;13.07;68.00;101090.63;5018970;28;20151;-84
2022/04/13 02:56:06;;;;;;;8.95;5.95;;;;;;;13.02;68.45;101079.34;5023724;28;20553;-84
2022/04/13 02:58:31;;;;;;;12.23;6.40;;;;;;;13.04;68.80;101088.09;5011205;28;20082;-84
2022/04/13 03:00:56;;;;;;;8.80;5.68;;;;;;;12.99;68.88;101087.53;5023563;28;20068;-84
2022/04/13 03:03:21;;;;;;;13.13;5.95;;;;;;;12.93;69.20;101091.41;5023980;28;20028;-84
2022/04/13 03:05:47;;;;;;;9.00;5.90;;;;;;;12.85;69.78;101086.50;5026182;28;20074;-84
2022/04/13 03:08:12;;;;;;;13.52;6.28;;;;;;;12.81;69.69;101086.75;5022951;28;20418;-84
2022/04/13 03:10:37;;;;;;;10.63;6.10;;;;;;;12.78;69.99;101087.78;5015449;28;20022;-84
2022/04/13 03:13:03;;;;;;;8.95;5.70;;;;;;;12.75;70.08;101089.75;5023158;28;20128;-84
2022/04/13 03:15:29;;;;;;;14.20;6.25;;;;;;;12.68;70.08;101098.13;5026352;28;20064;-84
2022/04/13 03:17:54;;;;;;;10.73;6.05;;;;;;;12.62;70.63;101089.59;5015133;28;20091;-83
2022/04/13 03:20:19;;;;;;;9.27;6.35;;;;;;;12.59;70.92;101087.09;5018891;28;20026;-84
2022/04/13 03:22:50;;;;;;;11.98;6.00;;;;;;;12.54;70.66;101083.81;5022985;28;20030;-84
2022/04/13 03:25:15;;;;;;;13.73;6.43;;;;;;;12.49;70.95;101081.38;5028387;28;20123;-84
2022/04/13 03:27:40;;;;;;;10.35;6.38;;;;;;;12.46;71.26;101077.09;5025682;28;20073;-83
2022/04/13 03:30:06;;;;;;;11.32;6.45;;;;;;;12.43;70.93;101093.28;5026860;28;20159;-83
2022/04/13 03:32:41;;;;;;;11.18;5.78;;;;;;;12.33;70.77;101086.72;5024586;28;20044;-83
2022/04/13 03:35:07;;;;;;;10.73;6.40;;;;;;;12.32;70.94;101089.47;5018071;28;20048;-84
2022/04/13 03:37:33;;;;;;;11.77;6.07;;;;;;;12.27;71.19;101092.38;5016222;28;20029;-84
2022/04/13 03:39:58;;;;;;;9.20;6.43;;;;;;;12.21;70.93;101087.38;5016397;28;20033;-83
2022/04/13 03:42:24;;;;;;;7.78;6.05;;;;;;;12.09;71.39;101082.72;5015974;28;20030;-83
2022/04/13 03:44:49;;;;;;;10.13;6.78;;;;;;;12.05;71.47;101081.16;5017129;28;20028;-84
2022/04/13 03:47:15;;;;;;;10.50;6.80;;;;;;;12.04;71.92;101084.72;5017245;28;20047;-83
2022/04/13 03:49:40;;;;;;;11.23;6.55;;;;;;;11.94;71.80;101079.88;5021176;28;20032;-84
2022/04/13 03:52:05;;;;;;;14.70;6.50;;;;;;;11.89;71.94;101087.28;5026301;28;20856;-84
2022/04/13 03:54:31;;;;;;;12.40;6.60;;;;;;;11.87;72.29;101094.50;5026606;28;20259;-83
2022/04/13 03:56:56;;;;;;;14.38;7.55;;;;;;;11.82;72.95;101095.63;5011667;28;20034;-84
2022/04/13 03:59:22;;;;;;;14.25;7.63;;;;;;;11.77;73.29;101103.88;5027152;28;20099;-84
2022/04/13 04:01:47;;;;;;;16.98;8.50;;;;;;;11.71;73.86;101106.88;5020506;28;20029;-84
2022/04/13 04:04:13;;;;;;;17.90;8.13;;;;;;;11.68;74.26;101107.88;5019953;28;20029;-84
2022/04/13 04:06:38;;;;;;;14.50;7.88;;;;;;;11.61;74.56;101108.28;5026307;28;20026;-84
2022/04/13 04:09:03;;;;;;;15.23;7.78;;;;;;;11.59;74.77;101119.03;5025527;28;20147;-84
2022/04/13 04:11:29;;;;;;;12.60;7.80;;;;;;;11.57;74.32;101120.03;5026733;28;20143;-84
2022/04/13 04:13:55;;;;;;;16.13;8.10;;;;;;;11.51;74.99;101123.03;5016435;28;20075;-84
2022/04/13 04:16:20;;;;;;;14.70;8.48;;;;;;;11.44;74.72;101128.66;5019348;28;20104;-84
2022/04/13 04:18:48;;;;;;;12.32;7.95;;;;;;;11.44;74.97;101133.13;5010988;28;20439;-84
2022/04/13 04:21:16;;;;;;;16.20;8.73;;;;;;;11.38;74.82;101126.31;5022317;28;20037;-84
2022/04/13 04:23:42;;;;;;;11.93;7.70;;;;;;;11.37;74.96;101132.56;5022785;28;20115;-84
2022/04/13 04:26:08;;;;;;;17.55;8.90;;;;;;;11.33;74.68;101139.00;5025953;28;20057;-84
2022/04/13 04:28:34;;;;;;;16.13;8.10;;;;;;;11.25;74.60;101141.16;5024181;28;20026;-84
2022/04/13 04:30:59;;;;;;;14.90;7.70;;;;;;;11.23;74.30;101135.91;5019070;28;20037;-83
2022/04/13 04:33:25;;;;;;;16.80;8.13;;;;;;;11.17;74.43;101136.22;5024924;28;20033;-84
2022/04/13 04:35:51;;;;;;;15.05;8.38;;;;;;;11.16;74.79;101144.25;5019304;28;20161;-84
2022/04/13 04:38:17;;;;;;;18.52;7.93;;;;;;;11.12;74.98;101148.91;5012457;28;20126;-84
2022/04/13 04:40:43;;;;;;;16.52;8.20;;;;;;;11.08;75.59;101159.78;5026362;28;20030;-84
2022/04/13 04:43:08;;;;;;;17.70;8.50;;;;;;;11.04;75.52;101164.38;5019215;28;20029;-84
2022/04/13 04:45:33;;;;;;;10.70;7.78;;;;;;;11.00;76.47;101156.63;5023853;28;20040;-84
2022/04/13 04:48:04;;;;;;;17.15;8.77;;;;;;;10.98;76.54;101167.31;5026343;28;20033;-84
2022/04/13 04:50:30;;;;;;;14.35;8.30;;;;;;;11.01;75.99;101166.31;5024431;28;20390;-83
2022/04/13 04:52:55;;;;;;;14.77;8.60;;;;;;;11.00;76.46;101175.25;5015448;28;20398;-84
2022/04/13 04:55:21;;;;;;;17.65;8.70;;;;;;;11.01;76.35;101182.31;5022972;28;20050;-84
2022/04/13 04:57:47;;;;;;;13.98;8.95;;;;;;;10.98;77.14;101181.50;5023398;28;20457;-85
2022/04/13 05:00:15;;;;;;;17.88;10.05;;;;;;;10.96;77.42;101182.53;5023901;28;20031;-84
2022/04/13 05:02:40;;;;;;;19.50;10.32;;;;;;;10.94;77.92;101182.56;5025053;28;20044;-84
2022/04/13 05:05:06;;;;;;;16.40;9.30;;;;;;;10.97;77.73;101179.78;5026508;28;20026;-84
2022/04/13 05:07:33;;;;;;;16.88;9.75;;;;;;;10.94;77.44;101184.38;5027861;28;20056;-84
2022/04/13 05:09:58;;;;;;;15.90;9.25;;;;;;;10.90;77.65;101188.97;5030573;28;20022;-84
2022/04/13 05:12:24;;;;;;;14.65;9.77;;;;;;;10.94;77.08;101192.38;5025387;28;20033;-84
2022/04/13 05:14:50;;;;;;;15.63;10.68;;;;;;;10.92;77.26;101191.59;5021425;28;20056;-84
2022/04/13 05:17:15;;;;;;;18.80;9.77;;;;;;;10.96;77.04;101194.03;5026298;28;20025;-84
2022/04/13 05:19:40;;;;;;;15.90;9.88;;;;;;;11.02;77.51;101203.53;5027475;28;20104;-84
2022/04/13 05:22:06;;;;;;;20.35;11.30;;;;;;;11.05;77.09;101205.19;5022401;28;20029;-84
2022/04/13 05:24:31;;;;;;;19.77;10.77;;;;;;;11.11;77.51;101199.56;5020050;28;20018;-84
2022/04/13 05:26:56;;;;;;;15.27;11.02;;;;;;;11.19;77.47;101192.06;5028979;28;20041;-84
2022/04/13 05:29:22;;;;;;;18.90;10.43;;;;;;;11.35;77.49;101209.06;5030208;28;20446;-84
2022/04/13 05:31:47;;;;;;;17.73;10.55;;;;;;;11.49;77.08;101211.03;5021668;28;20030;-83
2022/04/13 05:34:12;;;;;;;16.98;10.23;;;;;;;11.59;77.17;101204.34;5009748;28;20070;-83
2022/04/13 05:36:37;;;;;;;15.27;10.43;;;;;;;11.79;77.06;101215.81;5027704;28;20022;-84
2022/04/13 05:39:03;;;;;;;20.75;10.32;;;;;;;11.89;76.24;101214.44;5026641;28;20030;-84
2022/04/13 05:41:28;;;;;;;15.70;10.98;;;;;;;12.01;75.97;101220.97;5027496;28;20037;-83
2022/04/13 05:43:53;;;;;;;20.35;11.13;;;;;;;12.12;75.65;101221.28;5028462;28;20026;-83
2022/04/13 05:46:19;;;;;;;18.92;11.35;;;;;;;12.16;75.10;101225.50;5027488;28;20041;-84
2022/04/13 05:48:44;;;;;;;16.77;11.77;;;;;;;12.16;75.16;101212.16;5027322;28;20044;-84
2022/04/13 05:51:09;;;;;;;19.13;11.93;;;;;;;12.22;74.86;101206.53;5018722;28;20025;-84
2022/04/13 05:53:37;;;;;;;19.90;12.15;;;;;;;12.36;75.10;101227.16;5028765;28;20028;-83
2022/04/13 05:56:03;;;;;;;22.17;11.80;;;;;;;12.48;74.76;101234.53;5024337;28;20025;-85
2022/04/13 05:58:31;;;;;;;20.92;12.30;;;;;;;12.66;74.08;101238.88;5026893;28;20033;-86
2022/04/13 06:00:57;;;;;;;18.58;11.95;;;;;;;12.87;73.64;101239.53;5021474;28;20037;-86
2022/04/13 06:03:23;;;;;;;23.90;13.02;;;;;;;13.08;73.07;101236.63;5023825;28;20037;-83
2022/04/13 06:05:49;;;;;;;19.00;14.27;;;;;;;13.35;71.77;101240.50;5016277;28;20109;-84
2022/04/13 06:08:14;;;;;;;25.33;15.10;;;;;;;13.55;71.08;101246.53;5021088;28;20133;-85
2022/04/13 06:10:40;;;;;;;27.85;17.75;;;;;;;13.62;70.69;101253.25;5022831;28;20112;-85
2022/04/13 06:13:05;;;;;;;23.10;14.93;;;;;;;13.70;70.59;101251.00;5021448;28;20044;-85
2022/04/13 06:15:31;;;;;;;24.10;15.02;;;;;;;13.74;70.18;101257.91;5025008;28;20033;-85
2022/04/13 06:17:57;;;;;;;22.48;15.30;;;;;;;13.72;70.06;101264.31;5022968;28;20022;-85
2022/04/13 06:20:23;;;;;;;24.98;15.45;;;;;;;13.72;70.30;101265.16;5020621;28;20490;-85
2022/04/13 06:22:48;;;;;;;24.38;15.52;;;;;;;13.75;70.04;101256.94;5006001;28;20029;-86
2022/04/13 06:25:14;;;;;;;23.20;16.23;;;;;;;13.88;70.12;101260.66;5027118;28;20433;-85
2022/04/13 06:27:40;;;;;;;23.40;15.85;;;;;;;14.02;69.86;101270.53;5022346;28;20025;-85
2022/04/13 06:30:07;;;;;;;25.40;16.58;;;;;;;14.14;69.45;101268.97;5015724;28;20030;-84
2022/04/13 06:32:37;;;;;;;25.65;17.27;;;;;;;14.14;68.91;101274.31;5018208;28;20391;-83
2022/04/13 06:35:04;;;;;;;25.33;16.38;;;;;;;14.25;68.92;101265.63;5024784;28;20112;-82
2022/04/13 06:37:30;;;;;;;25.58;16.98;;;;;;;14.30;68.20;101261.75;4997989;28;20682;-84
2022/04/13 06:39:56;;;;;;;21.73;15.30;;;;;;;14.36;68.02;101263.19;5027582;28;20112;-84
2022/04/13 06:42:22;;;;;;;25.38;16.15;;;;;;;14.41;67.83;101267.31;5019931;28;20083;-84
2022/04/13 06:44:52;;;;;;;24.02;15.73;;;;;;;14.35;67.89;101277.53;5024541;28;20055;-84
2022/04/13 06:47:18;;;;;;;25.48;15.18;;;;;;;14.29;67.76;101283.25;5021158;28;20084;-84
2022/04/13 06:49:44;;;;;;;20.73;14.82;;;;;;;14.31;68.38;101290.25;5022148;28;20021;-91
2022/04/13 06:52:09;;;;;;;22.77;15.85;;;;;;;14.36;68.28;101287.28;5026620;28;20539;-90
2022/04/13 06:54:34;;;;;;;25.58;16.42;;;;;;;14.41;67.53;101295.91;5026145;28;20037;-90
2022/04/13 06:57:00;;;;;;;23.27;14.52;;;;;;;14.54;67.59;101294.25;5026673;28;20030;-91
2022/04/13 06:59:25;;;;;;;20.17;13.95;;;;;;;14.64;67.53;101308.81;5027139;28;20021;-90
2022/04/13 07:01:50;;;;;;;22.40;15.15;;;;;;;14.68;67.33;101306.81;4994864;28;20045;-91
2022/04/13 07:04:15;;;;;;;21.45;14.25;;;;;;;14.74;66.88;101303.75;5019967;28;20060;-91
2022/04/13 07:06:41;;;;;;;22.52;15.10;;;;;;;14.82;66.79;101305.97;5024032;28;20414;-90
2022/04/13 07:09:06;;;;;;;24.23;14.35;;;;;;;14.97;66.62;101304.19;5025364;28;20026;-84
2022/04/13 07:11:31;;;;;;;27.08;14.68;;;;;;;15.25;65.66;101324.75;5015286;28;20081;-89
2022/04/13 07:13:56;;;;;;;22.40;13.90;;;;;;;15.48;65.11;101324.19;5016760;28;20033;-89
2022/04/13 07:16:22;;;;;;;21.85;14.82;;;;;;;15.57;64.59;101328.09;5019678;28;20037;-88
2022/04/13 07:18:47;;;;;;;20.55;13.30;;;;;;;15.48;64.53;101324.19;5025985;28;20052;-88
2022/04/13 07:21:12;;;;;;;20.58;14.07;;;;;;;15.38;64.86;101339.13;5026433;28;20029;-88
2022/04/13 07:23:37;;;;;;;22.63;14.45;;;;;;;15.26;65.33;101342.56;5008799;28;20040;-88
2022/04/13 07:26:03;;;;;;;25.33;14.23;;;;;;;15.15;65.97;101346.78;5017960;28;20037;-88
2022/04/13 07:28:28;;;;;;;22.02;14.57;;;;;;;15.04;66.62;101357.31;5017754;28;20509;-88
2022/04/13 07:30:53;;;;;;;24.00;14.93;;;;;;;14.98;67.00;101348.78;5011460;28;20025;-89
2022/04/13 07:33:19;;;;;;;23.05;15.32;;;;;;;14.98;67.09;101348.78;5020245;28;20132;-88
2022/04/13 07:35:44;;;;;;;26.88;15.80;;;;;;;14.99;66.96;101343.31;5013144;28;20805;-89
2022/04/13 07:38:10;;;;;;;24.25;15.10;;;;;;;15.18;66.55;101351.09;5021157;28;20486;-89
2022/04/13 07:40:35;;;;;;;25.75;14.95;;;;;;;15.35;66.22;101355.41;5016630;28;20349;-90
2022/04/13 07:43:01;;;;;;;20.70;15.05;;;;;;;15.47;65.63;101356.44;5023450;28;20100;-90
2022/04/13 07:45:27;;;;;;;27.85;14.98;;;;;;;15.49;65.67;101357.22;5021491;28;20776;-89
2022/04/13 07:47:52;;;;;;;26.42;15.18;;;;;;;15.54;65.76;101350.59;5012508;28;20026;-89
2022/04/13 07:50:17;;;;;;;22.90;14.05;;;;;;;15.50;66.23;101343.69;5017866;28;20044;-90
2022/04/13 07:52:42;;;;;;;24.55;13.80;;;;;;;15.63;66.23;101355.41;5022836;28;20090;-89
2022/04/13 07:55:12;;;;;;;24.50;15.38;;;;;;;15.78;65.79;101360.75;5020014;28;20506;-89
2022/04/13 07:57:39;;;;;;;22.25;14.30;;;;;;;15.89;65.14;101369.00;4995971;28;20444;-90
2022/04/13 08:00:06;;;;;;;20.58;12.90;;;;;;;15.92;64.83;101356.22;5013424;28;20029;-89
2022/04/13 08:02:34;;;;;;;19.23;12.73;;;;;;;15.94;64.95;101365.03;5001419;28;20348;-91
2022/04/13 08:04:59;;;;;;;20.38;13.38;;;;;;;16.00;65.22;101362.91;5021500;28;20414;-89
2022/04/13 08:07:25;;;;;;;19.55;13.00;;;;;;;16.11;64.68;101372.00;5023550;28;20033;-91
2022/04/13 08:09:51;;;;;;;19.50;13.18;;;;;;;16.22;64.52;101381.16;5011596;28;20033;-86
2022/04/13 08:12:17;;;;;;;22.73;13.77;;;;;;;16.32;64.14;101380.47;5015200;28;20118;-91
2022/04/13 08:14:46;;;;;;;23.17;13.77;;;;;;;16.38;63.78;101373.81;5020744;28;20365;-93
2022/04/13 08:17:12;;;;;;;20.50;13.20;;;;;;;16.51;63.71;101384.59;5015972;28;20518;-92
2022/04/13 08:19:37;;;;;;;19.98;12.55;;;;;;;16.72;63.23;101385.84;5013980;28;20057;-89
2022/04/13 08:22:03;;;;;;;21.73;13.15;;;;;;;16.99;62.21;101391.19;5020637;28;20060;-89
2022/04/13 08:24:28;;;;;;;21.15;14.27;;;;;;;17.24;62.08;101382.28;5022979;28;20029;-92
2022/04/13 08:26:53;;;;;;;19.60;13.23;;;;;;;17.41;60.98;101392.69;5016253;28;20105;-93
2022/04/13 08:29:19;;;;;;;25.30;14.70;;;;;;;17.85;59.95;101383.31;5018194;28;20033;-91
2022/04/13 08:31:44;;;;;;;20.52;13.90;;;;;;;18.28;57.99;101395.44;5023343;28;20025;-92
2022/04/13 08:34:10;;;;;;;23.17;14.18;;;;;;;18.45;57.64;101392.34;5010491;28;20040;-93
2022/04/13 08:36:38;;;;;;;23.60;14.75;;;;;;;18.52;57.43;101398.09;5021631;28;20061;-93
2022/04/13 08:39:06;;;;;;;25.00;14.55;;;;;;;18.73;57.07;101399.22;5020542;28;20036;-93
2022/04/13 08:41:51;;;;;;;17.40;11.95;;;;;;;18.97;57.05;101409.94;5021111;28;20061;-91
2022/04/13 08:44:51;;;;;;;20.50;14.30;;;;;;;18.74;57.35;101406.34;5020146;28;20033;-91
2022/04/13 08:47:19;;;;;;;20.23;12.73;;;;;;;18.52;57.20;101407.09;5020256;28;20107;-89
2022/04/13 08:49:45;;;;;;;17.85;11.82;;;;;;;18.44;57.32;101404.09;5022719;28;20542;-87
2022/04/13 08:52:14;;;;;;;18.38;12.13;;;;;;;18.30;57.95;101413.19;5019062;28;20469;-87
2022/04/13 08:55:05;;;;;;;22.27;13.35;;;;;;;18.17;58.22;101412.38;5016920;28;20074;-89
2022/04/13 08:57:35;;;;;;;22.17;13.65;;;;;;;18.16;58.30;101414.22;5015811;28;20053;-88
2022/04/13 09:00:07;;;;;;;79.03;16.95;;;;;;;18.30;57.83;101418.59;5013604;28;20127;-89
2022/04/13 09:02:47;;;;;;;64.72;16.27;;;;;;;18.42;58.23;101423.06;5017720;28;20502;-90
2022/04/13 09:05:28;;;;;;;33.08;14.05;;;;;;;18.64;57.07;101416.94;5019094;28;20066;-89
2022/04/13 09:08:09;;;;;;;21.45;13.48;;;;;;;18.74;56.72;101416.28;5018294;28;20041;-89
2022/04/13 09:10:36;;;;;;;19.45;13.27;;;;;;;18.92;55.60;101417.53;5023880;28;20103;-88
2022/04/13 09:13:02;;;;;;;21.35;13.43;;;;;;;19.16;55.56;101422.88;5025778;28;20036;-89
2022/04/13 09:15:27;;;;;;;19.98;12.68;;;;;;;19.38;54.97;101420.22;5025651;28;20398;-90
2022/04/13 09:17:53;;;;;;;21.13;13.07;;;;;;;19.65;53.38;101424.47;5022370;28;20052;-89
2022/04/13 09:20:19;;;;;;;21.23;14.27;;;;;;;19.61;53.18;101428.38;5019144;28;20072;-88
2022/04/13 09:22:46;;;;;;;21.00;13.80;;;;;;;19.37;54.24;101442.81;5018659;28;20037;-88
2022/04/13 09:25:12;;;;;;;17.70;13.88;;;;;;;18.91;55.20;101437.41;5026007;28;20080;-89
2022/04/13 09:27:38;;;;;;;21.60;13.75;;;;;;;18.49;56.06;101450.44;5017495;28;20076;-90
2022/04/13 09:30:05;;;;;;;23.73;14.85;;;;;;;18.20;56.92;101443.66;5023547;28;20026;-88
2022/04/13 09:32:31;;;;;;;24.75;14.27;;;;;;;18.04;57.83;101441.19;5014464;28;20071;-91
2022/04/13 09:34:56;;;;;;;22.05;14.85;;;;;;;17.84;58.22;101458.78;5019766;28;20033;-88
2022/04/13 09:37:22;;;;;;;25.10;16.65;;;;;;;17.63;59.07;101448.53;5026701;28;20029;-87
2022/04/13 09:39:48;;;;;;;23.95;16.80;;;;;;;17.43;59.18;101449.97;5010583;28;20062;-88
2022/04/13 09:42:14;;;;;;;25.05;16.17;;;;;;;17.28;60.08;101455.56;5019143;28;20037;-88
2022/04/13 09:44:43;;;;;;;27.17;16.15;;;;;;;17.30;60.45;101461.69;5022722;28;20082;-89
2022/04/13 09:47:10;;;;;;;24.33;15.13;;;;;;;17.26;60.88;101463.72;5018172;28;20025;-87
2022/04/13 09:49:45;;;;;;;27.50;18.30;;;;;;;17.15;60.82;101469.84;5014367;28;20026;-87
2022/04/13 09:52:11;;;;;;;24.17;17.08;;;;;;;16.93;61.71;101469.59;5023786;28;20644;-87
2022/04/13 09:54:45;;;;;;;21.70;16.33;;;;;;;16.79;61.91;101464.28;5014060;28;20076;-88
2022/04/13 09:57:20;;;;;;;22.25;16.58;;;;;;;16.76;62.17;101467.16;5023130;28;20112;-88
2022/04/13 09:59:53;;;;;;;20.13;15.73;;;;;;;16.60;62.91;101462.78;5017368;28;20439;-86
2022/04/13 10:02:40;;;;;;;22.08;17.80;;;;;;;16.57;62.88;101470.19;5024602;28;20654;-90
2022/04/13 10:05:19;;;;;;;23.83;17.40;;;;;;;16.52;63.60;101472.31;5016978;28;20466;-90
2022/04/13 10:07:44;;;;;;;21.15;16.85;;;;;;;16.56;63.60;101476.53;5021231;28;20030;-91
2022/04/13 10:10:23;;;;;;;22.15;16.30;;;;;;;16.82;62.88;101474.81;5019913;28;20026;-91
2022/04/13 10:12:49;;;;;;;19.83;15.07;;;;;;;16.96;62.69;101465.81;5017288;28;20034;-90
2022/04/13 10:15:15;;;;;;;17.73;14.02;;;;;;;17.13;62.42;101468.22;5025692;28;20044;-90
2022/04/13 10:17:40;;;;;;;19.70;14.80;;;;;;;17.31;60.91;101463.44;5025138;28;20033;-92
2022/04/13 10:20:06;;;;;;;23.98;15.55;;;;;;;17.42;60.21;101472.44;5021799;28;20037;-92
2022/04/13 10:22:31;;;;;;;21.83;15.25;;;;;;;17.25;60.45;101467.38;5026732;28;20041;-92
2022/04/13 10:25:16;;;;;;;23.73;15.82;;;;;;;17.21;60.33;101468.56;5029451;28;20045;-92
2022/04/13 10:27:59;;;;;;;22.65;15.10;;;;;;;17.13;60.94;101468.22;5026213;28;20079;-90
2022/04/13 10:30:32;;;;;;;23.63;16.25;;;;;;;17.22;61.24;101467.59;5025115;28;20045;-90
2022/04/13 10:33:06;;;;;;;23.63;16.17;;;;;;;17.17;60.91;101470.59;5023172;28;20033;-90
2022/04/13 10:35:35;;;;;;;23.30;15.50;;;;;;;17.11;61.56;101470.16;5029584;28;20479;-91
2022/04/13 10:38:00;;;;;;;22.63;16.00;;;;;;;17.11;61.27;101471.03;5024116;28;20414;-91
2022/04/13 10:40:29;;;;;;;21.77;15.90;;;;;;;17.06;61.40;101470.50;5014502;28;20120;-91
2022/04/13 10:42:59;;;;;;;24.50;17.17;;;;;;;16.88;61.70;101477.09;5029329;28;20021;-91
2022/04/13 10:45:26;;;;;;;23.67;17.80;;;;;;;16.72;62.28;101485.31;5022935;28;20685;-88
2022/04/13 10:48:10;;;;;;;23.75;19.33;;;;;;;16.61;62.56;101486.00;5017901;28;20049;-88
2022/04/13 10:50:48;;;;;;;24.77;19.38;;;;;;;16.48;63.37;101490.47;5011833;28;20045;-88
2022/04/13 10:53:38;;;;;;;29.75;22.50;;;;;;;16.48;63.54;101487.78;5017980;28;20111;-88
2022/04/13 10:56:05;;;;;;;26.35;21.50;;;;;;;16.41;64.27;101503.44;5020141;28;20042;-88
2022/04/13 10:58:51;;;;;;;27.33;22.42;;;;;;;16.39;64.58;101507.19;5026896;28;20116;-88
2022/04/13 11:01:19;;;;;;;31.23;24.20;;;;;;;16.24;65.27;101511.72;5014771;28;20129;-89
2022/04/13 11:03:46;;;;;;;25.67;22.83;;;;;;;16.10;65.95;101509.06;5023028;28;20057;-88
2022/04/13 11:06:13;;;;;;;29.95;24.77;;;;;;;16.00;66.83;101515.94;5026721;28;20033;-89
2022/04/13 11:08:52;;;;;;;29.10;23.90;;;;;;;15.85;66.92;101507.06;5026195;28;20075;-89
2022/04/13 11:11:23;;;;;;;29.63;23.60;;;;;;;15.79;69.03;101512.78;5022142;28;20041;-88
2022/04/13 11:13:49;;;;;;;30.38;25.33;;;;;;;15.79;69.49;101508.28;5018619;28;20026;-89